createdAt,value
2022-09-21T00:00:44.684Z,11.80
2022-09-21T00:03:12.400Z,11.60
2022-09-21T00:05:38.900Z,11.60
2022-09-21T00:08:07.523Z,11.50
2022-09-21T00:10:34.921Z,11.50
2022-09-21T00:13:02.896Z,11.50
2022-09-21T00:15:31.031Z,11.60
2022-09-21T00:17:58.831Z,11.50
2022-09-21T00:20:27.764Z,11.40
2022-09-21T00:22:54.414Z,11.20
2022-09-21T00:25:21.328Z,11.10
2022-09-21T00:27:51.246Z,11.10
2022-09-21T00:30:18.528Z,11.10
2022-09-21T00:32:45.131Z,11.10
2022-09-21T00:35:11.647Z,11.20
2022-09-21T00:37:38.203Z,11.20
2022-09-21T00:40:05.163Z,11.00
2022-09-21T00:42:34.478Z,11.00
2022-09-21T00:45:01.914Z,11.00
2022-09-21T00:47:40.482Z,11.10
2022-09-21T00:50:11.505Z,11.00
2022-09-21T00:52:43.328Z,10.90
2022-09-21T00:55:26.036Z,10.80
2022-09-21T00:57:57.144Z,10.80
2022-09-21T01:00:23.664Z,10.80
2022-09-21T01:02:51.334Z,10.70
2022-09-21T01:05:17.920Z,10.70
2022-09-21T01:07:47.579Z,10.70
2022-09-21T01:10:18.137Z,10.70
2022-09-21T01:13:15.272Z,10.60
2022-09-21T01:16:08.400Z,10.40
2022-09-21T01:18:56.120Z,10.30
2022-09-21T01:21:25.924Z,10.40
2022-09-21T01:24:17.384Z,10.40
2022-09-21T01:27:31.975Z,10.40
2022-09-21T01:30:12.305Z,10.40
2022-09-21T01:32:47.732Z,10.40
2022-09-21T01:35:20.222Z,10.30
2022-09-21T01:37:58.404Z,10.20
2022-09-21T01:40:35.447Z,10.20
2022-09-21T01:43:05.558Z,10.30
2022-09-21T01:45:36.019Z,10.20
2022-09-21T01:48:03.443Z,10.20
2022-09-21T01:50:38.460Z,10.00
2022-09-21T01:53:23.671Z,9.70
2022-09-21T01:55:57.995Z,9.80
2022-09-21T01:58:33.418Z,9.90
2022-09-21T02:01:01.178Z,9.90
2022-09-21T02:03:40.373Z,9.90
2022-09-21T02:06:09.485Z,9.90
2022-09-21T02:08:37.921Z,9.90
2022-09-21T02:11:06.426Z,9.90
2022-09-21T02:13:41.364Z,9.90
2022-09-21T02:16:07.887Z,9.90
2022-09-21T02:18:43.764Z,9.80
2022-09-21T02:21:25.566Z,9.70
2022-09-21T02:24:07.728Z,9.50
2022-09-21T02:26:40.336Z,9.50
2022-09-21T02:29:21.219Z,9.50
2022-09-21T02:32:01.995Z,9.60
2022-09-21T02:34:50.496Z,9.50
2022-09-21T02:37:43.203Z,9.50
2022-09-21T02:40:42.145Z,9.50
2022-09-21T02:43:30.232Z,9.50
2022-09-21T02:46:06.113Z,9.50
2022-09-21T02:48:37.854Z,9.40
2022-09-21T02:51:30.844Z,9.40
2022-09-21T02:54:00.076Z,9.40
2022-09-21T02:56:28.304Z,9.20
2022-09-21T02:58:59.495Z,9.20
2022-09-21T03:01:27.096Z,9.30
2022-09-21T03:03:53.905Z,9.30
2022-09-21T03:06:20.432Z,9.30
2022-09-21T03:08:46.992Z,9.30
2022-09-21T03:11:20.540Z,9.20
2022-09-21T03:13:47.247Z,9.10
2022-09-21T03:16:14.064Z,9.10
2022-09-21T03:18:43.927Z,9.00
2022-09-21T03:21:12.112Z,8.80
2022-09-21T03:23:39.639Z,8.80
2022-09-21T03:26:06.271Z,8.80
2022-09-21T03:28:32.835Z,8.90
2022-09-21T03:30:59.446Z,8.90
2022-09-21T03:33:26.091Z,9.00
2022-09-21T03:35:52.844Z,9.00
2022-09-21T03:38:21.460Z,9.00
2022-09-21T03:40:49.033Z,8.80
2022-09-21T03:43:16.380Z,8.80
2022-09-21T03:45:43.112Z,8.90
2022-09-21T03:48:11.118Z,8.90
2022-09-21T03:50:38.193Z,8.90
2022-09-21T03:53:05.331Z,8.90
2022-09-21T03:55:33.059Z,8.90
2022-09-21T03:57:59.672Z,8.90
2022-09-21T04:00:26.723Z,8.90
2022-09-21T04:02:53.377Z,8.90
2022-09-21T04:05:20.667Z,8.90
2022-09-21T04:07:47.508Z,8.90
2022-09-21T04:10:17.999Z,8.90
2022-09-21T04:12:45.390Z,8.90
2022-09-21T04:15:14.209Z,8.90
2022-09-21T04:17:41.575Z,8.90
2022-09-21T04:20:09.283Z,8.90
2022-09-21T04:22:39.969Z,8.80
2022-09-21T04:25:10.776Z,8.80
2022-09-21T04:27:37.403Z,8.80
2022-09-21T04:30:05.134Z,8.80
2022-09-21T04:32:31.682Z,8.70
2022-09-21T04:34:58.260Z,8.60
2022-09-21T04:37:28.700Z,8.60
2022-09-21T04:39:55.837Z,8.50
2022-09-21T04:42:23.350Z,8.50
2022-09-21T04:44:50.039Z,8.50
2022-09-21T04:47:16.592Z,8.40
2022-09-21T04:49:43.175Z,8.40
2022-09-21T04:52:09.872Z,8.30
2022-09-21T04:54:36.487Z,8.30
2022-09-21T04:57:03.064Z,8.30
2022-09-21T04:59:29.611Z,8.30
2022-09-21T05:01:56.171Z,8.30
2022-09-21T05:04:22.690Z,8.30
2022-09-21T05:06:49.259Z,8.30
2022-09-21T05:09:34.659Z,8.30
2022-09-21T05:12:02.928Z,8.20
2022-09-21T05:14:29.467Z,8.20
2022-09-21T05:16:55.995Z,8.10
2022-09-21T05:19:22.864Z,8.10
2022-09-21T05:21:49.403Z,8.10
2022-09-21T05:24:16.191Z,8.10
2022-09-21T05:26:42.753Z,8.00
2022-09-21T05:29:09.555Z,8.10
2022-09-21T05:31:54.100Z,8.10
2022-09-21T05:34:45.170Z,8.10
2022-09-21T05:37:39.040Z,8.10
2022-09-21T05:40:07.321Z,8.10
2022-09-21T05:42:34.544Z,8.00
2022-09-21T05:45:01.560Z,8.10
2022-09-21T05:47:39.620Z,8.10
2022-09-21T05:50:35.273Z,8.10
2022-09-21T05:53:20.652Z,8.10
2022-09-21T05:55:57.421Z,8.20
2022-09-21T05:58:42.290Z,8.20
2022-09-21T06:01:27.482Z,8.20
2022-09-21T06:03:55.541Z,8.20
2022-09-21T06:06:22.255Z,8.30
2022-09-21T06:08:48.861Z,8.20
2022-09-21T06:11:15.534Z,8.30
2022-09-21T06:13:43.675Z,8.30
2022-09-21T06:16:10.559Z,8.40
2022-09-21T06:18:41.145Z,8.40
2022-09-21T06:21:08.561Z,8.40
2022-09-21T06:23:36.121Z,8.40
2022-09-21T06:26:03.092Z,8.40
2022-09-21T06:28:29.830Z,8.50
2022-09-21T06:30:58.073Z,8.50
2022-09-21T06:33:24.789Z,8.50
2022-09-21T06:35:56.188Z,8.50
2022-09-21T06:38:23.716Z,8.60
2022-09-21T06:40:51.565Z,8.70
2022-09-21T06:43:19.047Z,8.70
2022-09-21T06:45:54.265Z,8.80
2022-09-21T06:48:21.580Z,8.90
2022-09-21T06:50:48.417Z,9.00
2022-09-21T06:53:15.936Z,9.10
2022-09-21T06:55:42.618Z,9.10
2022-09-21T06:58:09.173Z,9.20
2022-09-21T07:00:36.083Z,9.30
2022-09-21T07:03:02.612Z,9.40
2022-09-21T07:05:29.144Z,9.40
2022-09-21T07:07:59.306Z,9.40
2022-09-21T07:10:26.458Z,9.30
2022-09-21T07:12:53.105Z,9.40
2022-09-21T07:15:21.631Z,9.40
2022-09-21T07:17:53.754Z,9.40
2022-09-21T07:20:31.567Z,9.40
2022-09-21T07:22:58.091Z,9.50
2022-09-21T07:25:24.640Z,9.50
2022-09-21T07:27:52.637Z,9.60
2022-09-21T07:30:19.179Z,9.70
2022-09-21T07:32:45.707Z,9.80
2022-09-21T07:35:12.219Z,9.80
2022-09-21T07:37:38.827Z,9.90
2022-09-21T07:40:06.257Z,10.00
2022-09-21T07:42:32.934Z,10.10
2022-09-21T07:45:05.119Z,10.30
2022-09-21T07:47:31.892Z,10.30
2022-09-21T07:49:58.470Z,10.40
2022-09-21T07:52:24.985Z,10.60
2022-09-21T07:54:51.524Z,10.60
2022-09-21T07:57:36.823Z,10.70
2022-09-21T08:00:04.639Z,10.80
2022-09-21T08:02:31.211Z,10.90
2022-09-21T08:04:57.768Z,11.10
2022-09-21T08:07:24.714Z,11.20
2022-09-21T08:09:51.329Z,11.30
2022-09-21T08:15:30.662Z,11.50
2022-09-21T08:17:58.631Z,11.60
2022-09-21T08:20:25.257Z,11.80
2022-09-21T08:25:45.093Z,12.00
2022-09-21T08:28:11.691Z,12.10
2022-09-21T08:30:38.331Z,12.10
2022-09-21T08:33:06.836Z,12.20
2022-09-21T08:35:33.678Z,12.30
2022-09-21T08:38:00.262Z,12.40
2022-09-21T08:40:27.037Z,12.50
2022-09-21T08:43:00.804Z,12.60
2022-09-21T08:45:35.090Z,12.80
2022-09-21T08:48:10.511Z,12.90
2022-09-21T08:50:37.192Z,13.00
2022-09-21T08:53:19.573Z,13.00
2022-09-21T08:55:46.580Z,13.10
2022-09-21T08:58:28.069Z,13.20
2022-09-21T09:01:14.972Z,13.30
2022-09-21T09:03:56.714Z,13.50
2022-09-21T09:07:04.419Z,13.60
2022-09-21T09:09:55.838Z,13.70
2022-09-21T09:12:25.451Z,13.70
2022-09-21T09:15:26.403Z,13.80
2022-09-21T09:18:18.481Z,13.90
2022-09-21T09:21:01.741Z,14.00
2022-09-21T09:23:43.308Z,14.20
2022-09-21T09:26:17.575Z,14.30
2022-09-21T09:29:04.658Z,14.50
2022-09-21T09:31:38.876Z,14.40
2022-09-21T09:34:14.455Z,14.50
2022-09-21T09:36:58.894Z,14.60
2022-09-21T09:39:27.916Z,14.60
2022-09-21T09:42:22.558Z,14.70
2022-09-21T09:45:11.711Z,14.80
2022-09-21T09:47:54.401Z,15.00
2022-09-21T09:50:33.470Z,15.00
2022-09-21T09:53:20.408Z,15.10
2022-09-21T09:55:49.821Z,15.30
2022-09-21T09:58:34.309Z,15.30
2022-09-21T10:01:01.171Z,15.40
2022-09-21T10:03:28.251Z,15.40
2022-09-21T10:05:55.585Z,15.50
2022-09-21T10:08:43.473Z,15.60
2022-09-21T10:11:12.231Z,15.70
2022-09-21T10:13:45.384Z,15.70
2022-09-21T10:16:15.500Z,15.80
2022-09-21T10:18:58.844Z,15.80
2022-09-21T10:21:37.668Z,15.80
2022-09-21T10:24:46.356Z,15.90
2022-09-21T10:27:19.654Z,15.90
2022-09-21T10:29:47.992Z,15.90
2022-09-21T10:32:20.827Z,16.10
2022-09-21T10:35:08.626Z,16.20
2022-09-21T10:37:38.775Z,16.20
2022-09-21T10:40:22.667Z,16.20
2022-09-21T10:42:54.876Z,16.30
2022-09-21T10:45:30.971Z,16.40
2022-09-21T10:48:13.523Z,16.40
2022-09-21T10:50:42.386Z,16.50
2022-09-21T10:53:08.848Z,16.80
2022-09-21T10:56:15.054Z,16.80
2022-09-21T10:59:11.257Z,16.70
2022-09-21T11:01:45.099Z,16.70
2022-09-21T11:04:29.605Z,16.80
2022-09-21T11:07:23.639Z,16.70
2022-09-21T11:10:38.198Z,16.80
2022-09-21T11:13:17.873Z,17.00
2022-09-21T11:16:09.732Z,17.00
2022-09-21T11:19:06.062Z,17.10
2022-09-21T11:21:44.727Z,17.10
2022-09-21T11:24:22.600Z,17.10
2022-09-21T11:26:55.336Z,17.00
2022-09-21T11:29:36.360Z,17.00
2022-09-21T11:32:35.098Z,17.30
2022-09-21T11:35:08.758Z,17.30
2022-09-21T11:38:05.863Z,17.20
2022-09-21T11:40:57.829Z,17.40
2022-09-21T11:43:43.047Z,17.70
2022-09-21T11:46:30.219Z,17.80
2022-09-21T11:49:16.847Z,17.70
2022-09-21T11:52:11.350Z,17.70
2022-09-21T11:54:40.741Z,17.70
2022-09-21T11:57:20.132Z,17.70
2022-09-21T12:00:05.317Z,17.80
2022-09-21T12:03:02.094Z,18.00
2022-09-21T12:05:50.677Z,18.40
2022-09-21T12:08:46.665Z,18.70
2022-09-21T12:11:19.445Z,19.00
2022-09-21T12:14:15.152Z,19.10
2022-09-21T12:17:06.246Z,19.40
2022-09-21T12:19:46.355Z,19.60
2022-09-21T12:22:27.387Z,19.80
2022-09-21T12:25:03.997Z,19.70
2022-09-21T12:27:44.031Z,19.50
2022-09-21T12:30:22.314Z,19.30
2022-09-21T12:32:53.347Z,19.10
2022-09-21T12:35:34.404Z,19.00
2022-09-21T12:38:11.863Z,18.90
2022-09-21T12:40:47.295Z,18.60
2022-09-21T12:43:27.116Z,18.60
2022-09-21T12:46:07.755Z,18.50
2022-09-21T12:48:38.978Z,18.40
2022-09-21T12:51:20.323Z,18.40
2022-09-21T12:53:51.267Z,18.60
2022-09-21T12:56:46.576Z,18.70
2022-09-21T12:59:55.816Z,18.80
2022-09-21T13:05:28.297Z,19.60
2022-09-21T13:08:00.875Z,20.00
2022-09-21T13:10:42.474Z,20.30
2022-09-21T13:16:30.500Z,19.70
2022-09-21T13:19:03.389Z,19.70
2022-09-21T13:21:32.728Z,19.80
2022-09-21T13:24:04.996Z,19.80
2022-09-21T13:26:41.321Z,19.60
2022-09-21T13:29:19.692Z,19.50
2022-09-21T13:31:57.806Z,19.40
2022-09-21T13:34:45.220Z,19.40
2022-09-21T13:37:11.709Z,19.50
2022-09-21T13:39:55.620Z,20.00
2022-09-21T13:42:37.191Z,20.10
2022-09-21T13:45:16.220Z,19.80
2022-09-21T13:47:48.424Z,20.00
2022-09-21T13:50:39.173Z,20.40
2022-09-21T13:53:17.464Z,20.40
2022-09-21T13:55:51.536Z,20.20
2022-09-21T13:58:20.707Z,20.50
2022-09-21T14:01:02.289Z,20.90
2022-09-21T14:03:38.528Z,21.00
2022-09-21T14:06:17.493Z,20.70
2022-09-21T14:09:06.042Z,21.00
2022-09-21T14:11:43.756Z,21.00
2022-09-21T14:17:35.925Z,21.30
2022-09-21T14:20:05.166Z,21.80
2022-09-21T14:22:38.059Z,22.10
2022-09-21T14:25:25.548Z,22.00
2022-09-21T14:27:53.736Z,21.60
2022-09-21T14:30:25.910Z,21.70
2022-09-21T14:33:10.692Z,21.90
2022-09-21T14:35:42.393Z,22.10
2022-09-21T14:38:28.672Z,22.20
2022-09-21T14:41:02.181Z,21.80
2022-09-21T14:43:35.137Z,21.50
2022-09-21T14:46:30.210Z,21.70
2022-09-21T14:49:14.735Z,21.90
2022-09-21T14:52:21.115Z,22.00
2022-09-21T14:55:27.783Z,21.70
2022-09-21T14:57:57.336Z,21.10
2022-09-21T15:00:35.280Z,21.10
2022-09-21T15:03:24.499Z,21.00
2022-09-21T15:05:57.908Z,20.80
2022-09-21T15:09:01.448Z,20.90
2022-09-21T15:11:37.113Z,21.10
2022-09-21T15:14:21.008Z,21.10
2022-09-21T15:16:50.299Z,21.20
2022-09-21T15:19:27.168Z,21.50
2022-09-21T15:22:13.923Z,21.70
2022-09-21T15:24:52.826Z,21.80
2022-09-21T15:27:22.676Z,21.90
2022-09-21T15:29:53.312Z,21.90
2022-09-21T15:32:36.491Z,22.00
2022-09-21T15:35:27.652Z,22.50
2022-09-21T15:37:55.945Z,22.90
2022-09-21T15:40:46.135Z,23.30
2022-09-21T15:43:14.981Z,23.80
2022-09-21T15:45:57.252Z,24.00
2022-09-21T15:48:26.444Z,23.80
2022-09-21T15:50:58.015Z,23.60
2022-09-21T15:53:39.244Z,22.90
2022-09-21T15:56:07.240Z,22.50
2022-09-21T15:58:37.085Z,22.20
2022-09-21T16:01:15.968Z,21.90
2022-09-21T16:03:43.288Z,21.60
2022-09-21T16:06:22.116Z,21.70
2022-09-21T16:08:48.795Z,22.00
2022-09-21T16:11:31.861Z,21.90
2022-09-21T16:14:38.280Z,21.80
2022-09-21T16:17:14.800Z,22.10
2022-09-21T16:20:12.822Z,22.20
2022-09-21T16:22:45.151Z,22.40
2022-09-21T16:25:32.505Z,22.70
2022-09-21T16:28:15.389Z,22.60
2022-09-21T16:30:46.803Z,22.50
2022-09-21T16:33:38.302Z,22.70
2022-09-21T16:36:26.063Z,23.00
2022-09-21T16:38:53.535Z,23.00
2022-09-21T16:41:21.912Z,23.10
2022-09-21T16:43:50.743Z,23.30
2022-09-21T16:46:18.556Z,23.30
2022-09-21T16:48:45.154Z,23.30
2022-09-21T16:51:12.996Z,23.40
2022-09-21T16:53:39.577Z,23.50
2022-09-21T16:56:14.485Z,23.60
2022-09-21T16:58:43.684Z,23.90
2022-09-21T17:01:13.051Z,24.00
2022-09-21T17:03:40.195Z,23.60
2022-09-21T17:06:18.642Z,23.30
2022-09-21T17:08:48.096Z,23.00
2022-09-21T17:11:19.681Z,22.80
2022-09-21T17:13:47.983Z,22.50
2022-09-21T17:16:18.430Z,22.10
2022-09-21T17:18:46.253Z,21.80
2022-09-21T17:21:13.583Z,21.80
2022-09-21T17:23:41.215Z,21.80
2022-09-21T17:26:25.776Z,21.80
2022-09-21T17:28:54.632Z,21.70
2022-09-21T17:31:23.994Z,21.90
2022-09-21T17:33:53.898Z,22.20
2022-09-21T17:36:20.534Z,22.30
2022-09-21T17:38:47.156Z,22.40
2022-09-21T17:41:30.918Z,22.60
2022-09-21T17:44:43.757Z,22.60
2022-09-21T17:47:27.871Z,22.50
2022-09-21T17:49:57.438Z,22.20
2022-09-21T17:52:43.150Z,22.10
2022-09-21T17:55:13.643Z,22.00
2022-09-21T17:57:45.968Z,21.90
2022-09-21T18:00:20.396Z,21.70
2022-09-21T18:02:48.391Z,21.50
2022-09-21T18:05:23.707Z,21.40
2022-09-21T18:07:51.046Z,21.30
2022-09-21T18:10:23.163Z,20.90
2022-09-21T18:12:58.457Z,20.90
2022-09-21T18:15:49.018Z,20.90
2022-09-21T18:18:28.306Z,20.80
2022-09-21T18:21:05.061Z,20.50
2022-09-21T18:24:06.630Z,20.40
2022-09-21T18:26:34.715Z,20.40
2022-09-21T18:29:12.625Z,20.30
2022-09-21T18:32:09.557Z,20.40
2022-09-21T18:34:51.916Z,20.50
2022-09-21T18:37:38.713Z,20.50
2022-09-21T18:40:22.090Z,20.60
2022-09-21T18:42:59.480Z,20.40
2022-09-21T18:45:37.472Z,20.40
2022-09-21T18:48:22.956Z,20.50
2022-09-21T18:51:17.221Z,20.50
2022-09-21T18:53:46.379Z,20.40
2022-09-21T18:56:13.983Z,20.20
2022-09-21T18:58:44.478Z,20.10
2022-09-21T19:01:16.801Z,19.80
2022-09-21T19:03:43.997Z,19.70
2022-09-21T19:06:27.205Z,19.60
2022-09-21T19:08:56.718Z,19.50
2022-09-21T19:11:37.998Z,19.50
2022-09-21T19:14:33.272Z,19.50
2022-09-21T19:17:02.839Z,19.50
2022-09-21T19:19:44.262Z,19.40
2022-09-21T19:22:49.313Z,19.40
2022-09-21T19:25:49.522Z,19.30
2022-09-21T19:28:39.894Z,19.30
2022-09-21T19:31:16.666Z,19.20
2022-09-21T19:36:27.715Z,18.90
2022-09-21T19:38:54.484Z,18.70
2022-09-21T19:41:38.546Z,18.60
2022-09-21T19:44:32.411Z,18.60
2022-09-21T19:47:19.171Z,18.50
2022-09-21T19:49:56.309Z,18.40
2022-09-21T19:52:32.436Z,18.30
2022-09-21T19:55:18.059Z,18.20
2022-09-21T19:58:13.976Z,18.10
2022-09-21T20:00:43.559Z,18.00
2022-09-21T20:03:17.456Z,18.00
2022-09-21T20:05:48.163Z,17.90
2022-09-21T20:08:36.021Z,17.90
2022-09-21T20:11:02.559Z,17.90
2022-09-21T20:13:49.254Z,17.80
2022-09-21T20:16:43.578Z,17.60
2022-09-21T20:19:22.414Z,17.60
2022-09-21T20:21:56.852Z,17.60
2022-09-21T20:24:33.205Z,17.50
2022-09-21T20:27:00.676Z,17.50
2022-09-21T20:29:27.208Z,17.30
2022-09-21T20:31:54.780Z,17.10
2022-09-21T20:34:22.278Z,17.00
2022-09-21T20:36:48.841Z,16.80
2022-09-21T20:39:15.354Z,16.60
2022-09-21T20:41:41.943Z,16.60
2022-09-21T20:44:12.520Z,16.70
2022-09-21T20:46:39.104Z,16.80
2022-09-21T20:49:08.015Z,16.80
2022-09-21T20:51:35.704Z,16.80
2022-09-21T20:54:03.046Z,16.80
2022-09-21T20:56:30.447Z,16.80
2022-09-21T20:58:57.067Z,16.80
2022-09-21T21:01:24.222Z,16.70
2022-09-21T21:03:51.134Z,16.70
2022-09-21T21:06:21.174Z,16.70
2022-09-21T21:08:47.882Z,16.60
2022-09-21T21:11:14.486Z,16.60
2022-09-21T21:13:41.834Z,16.40
2022-09-21T21:16:12.063Z,16.30
2022-09-21T21:18:43.040Z,16.20
2022-09-21T21:21:09.682Z,16.10
2022-09-21T21:24:14.622Z,16.10
2022-09-21T21:27:01.331Z,16.10
2022-09-21T21:29:27.943Z,16.10
2022-09-21T21:31:54.537Z,16.00
2022-09-21T21:34:21.290Z,16.10
2022-09-21T21:36:47.914Z,16.10
2022-09-21T21:39:14.439Z,16.00
2022-09-21T21:41:43.295Z,16.00
2022-09-21T21:44:11.346Z,15.90
2022-09-21T21:46:37.865Z,15.80
2022-09-21T21:49:04.737Z,15.70
2022-09-21T21:51:31.455Z,15.70
2022-09-21T21:53:58.037Z,15.60
2022-09-21T21:56:24.575Z,15.50
2022-09-21T21:58:53.281Z,15.40
2022-09-21T22:01:26.180Z,15.10
2022-09-21T22:03:54.692Z,15.00
2022-09-21T22:06:21.759Z,15.00
2022-09-21T22:08:48.889Z,15.10
2022-09-21T22:11:17.545Z,15.10
2022-09-21T22:13:45.492Z,15.00
2022-09-21T22:16:14.781Z,14.90
2022-09-21T22:18:42.427Z,14.90
2022-09-21T22:21:12.469Z,14.80
2022-09-21T22:23:39.572Z,14.60
2022-09-21T22:26:13.942Z,14.50
2022-09-21T22:28:43.901Z,14.50
2022-09-21T22:31:13.229Z,14.60
2022-09-21T22:33:40.099Z,14.60
2022-09-21T22:36:12.495Z,14.50
2022-09-21T22:38:42.917Z,14.50
2022-09-21T22:41:11.884Z,14.50
2022-09-21T22:43:39.312Z,14.40
2022-09-21T22:46:06.691Z,14.30
2022-09-21T22:48:33.342Z,14.20
2022-09-21T22:51:00.095Z,14.30
2022-09-21T22:53:27.120Z,14.30
2022-09-21T22:56:07.370Z,14.20
2022-09-21T22:58:37.109Z,14.20
2022-09-21T23:01:09.511Z,14.10
2022-09-21T23:03:36.977Z,14.00
2022-09-21T23:06:05.273Z,14.00
2022-09-21T23:08:32.437Z,14.10
2022-09-21T23:11:10.337Z,14.10
2022-09-21T23:13:37.471Z,14.00
2022-09-21T23:16:06.301Z,13.90
2022-09-21T23:18:33.564Z,13.90
2022-09-21T23:21:02.165Z,13.90
2022-09-21T23:23:29.562Z,13.90
2022-09-21T23:26:09.976Z,13.90
2022-09-21T23:28:37.822Z,13.80
2022-09-21T23:31:07.358Z,13.80
2022-09-21T23:33:39.559Z,13.70
2022-09-21T23:36:07.844Z,13.70
2022-09-21T23:38:34.672Z,13.70
2022-09-21T23:41:05.872Z,13.60
2022-09-21T23:43:33.580Z,13.60
2022-09-21T23:46:00.305Z,13.60
2022-09-21T23:48:27.185Z,13.50
2022-09-21T23:50:55.513Z,13.40
2022-09-21T23:53:23.563Z,13.20
2022-09-21T23:55:50.136Z,13.10
2022-09-21T23:58:16.792Z,12.90
